Time;durP1;ratioP1;P1;durP2;ratioP2;P2;SDS_P1;SDS_P2;PMS_P1;PMS_P2;Temp;Humidity;BMP_temperature;BMP_pressure;BME280_temperature;BME280_humidity;BME280_pressure;Samples;Min_cycle;Max_cycle;Signal;HPM_P1;HPM_P2
2023/04/06 00:00:48;;;;;;;;;;;;;;;4.16;82.35;100384.28;5047466;28;20308;-59
2023/04/06 00:03:13;;;;;;;;;;;;;;;4.20;81.83;100381.63;5043972;28;20374;-59
2023/04/06 00:05:38;;;;;;;;;;;;;;;4.26;80.64;100381.66;5047690;28;19948;-59
2023/04/06 00:08:04;;;;;;;;;;;;;;;4.29;80.28;100379.00;5042688;28;19944;-59
2023/04/06 00:10:29;;;;;;;;;;;;;;;4.31;80.10;100379.00;5031803;28;19935;-60
2023/04/06 00:12:56;;;;;;;;;;;;;;;4.32;79.76;100378.09;5031866;28;19924;-59
2023/04/06 00:15:21;;;;;;;;;;;;;;;4.28;78.51;100369.38;5031887;28;19943;-59
2023/04/06 00:17:47;;;;;;;;;;;;;;;4.30;77.16;100378.13;5046874;28;20007;-59
2023/04/06 00:20:12;;;;;;;;;;;;;;;4.41;77.03;100373.72;5051439;28;19939;-59
2023/04/06 00:22:37;;;;;;;;;;;;;;;4.50;76.50;100370.19;5065228;28;19940;-59
2023/04/06 00:25:02;;;;;;;;;;;;;;;4.58;76.14;100368.41;5070990;28;19952;-59
2023/04/06 00:27:28;;;;;;;;;;;;;;;4.56;76.31;100381.59;5050141;28;19951;-59
2023/04/06 00:29:53;;;;;;;;;;;;;;;4.48;76.05;100367.53;5030340;28;19943;-60
2023/04/06 00:32:18;;;;;;;;;;;;;;;4.38;76.18;100376.38;5030524;28;20408;-59
2023/04/06 00:34:43;;;;;;;;;;;;;;;4.24;76.55;100380.78;5032234;28;19964;-60
2023/04/06 00:37:11;;;;;;;;;;;;;;;4.11;77.08;100383.41;5030499;28;20442;-59
2023/04/06 00:39:36;;;;;;;;;;;;;;;3.99;77.67;100381.66;5032937;28;19935;-59
2023/04/06 00:42:07;;;;;;;;;;;;;;;3.92;78.41;100386.06;5031369;28;19999;-59
2023/04/06 00:44:32;;;;;;;;;;;;;;;3.83;79.97;100375.56;5032193;28;20339;-59
2023/04/06 00:46:57;;;;;;;;;;;;;;;3.83;79.71;100375.56;5049991;28;19948;-59
2023/04/06 00:49:23;;;;;;;;;;;;;;;3.79;80.76;100378.16;5051046;28;19927;-59
2023/04/06 00:51:48;;;;;;;;;;;;;;;3.72;81.06;100377.28;5056167;28;19973;-59
2023/04/06 00:54:14;;;;;;;;;;;;;;;3.67;81.26;100367.66;5058335;28;19925;-59
2023/04/06 00:56:41;;;;;;;;;;;;;;;3.58;82.55;100367.63;5031185;28;19948;-59
2023/04/06 00:59:06;;;;;;;;;;;;;;;3.54;82.24;100371.16;5031051;28;19983;-59
2023/04/06 01:01:32;;;;;;;;;;;;;;;3.52;82.92;100363.25;5033407;28;19933;-59
2023/04/06 01:03:57;;;;;;;;;;;;;;;3.56;82.95;100366.75;5051070;28;19967;-59
2023/04/06 01:06:22;;;;;;;;;;;;;;;3.57;82.98;100365.88;5051205;28;19952;-59
2023/04/06 01:08:48;;;;;;;;;;;;;;;3.63;83.24;100355.34;5050547;28;19913;-59
2023/04/06 01:11:13;;;;;;;;;;;;;;;3.67;83.50;100351.88;5053392;28;20358;-59
2023/04/06 01:13:38;;;;;;;;;;;;;;;3.69;83.54;100358.00;5038225;28;19917;-59
2023/04/06 01:16:04;;;;;;;;;;;;;;;3.73;83.31;100352.75;5046553;28;19940;-59
2023/04/06 01:18:29;;;;;;;;;;;;;;;3.70;83.21;100355.38;5041201;28;19949;-59
2023/04/06 01:20:55;;;;;;;;;;;;;;;3.68;82.89;100348.34;5030598;28;19993;-59
2023/04/06 01:23:20;;;;;;;;;;;;;;;3.65;82.95;100351.88;5062802;28;20467;-59
2023/04/06 01:25:45;;;;;;;;;;;;;;;3.65;82.89;100343.09;5070558;28;19947;-59
2023/04/06 01:28:11;;;;;;;;;;;;;;;3.58;83.30;100347.47;5051547;28;19935;-59
2023/04/06 01:30:36;;;;;;;;;;;;;;;3.51;83.35;100344.84;5050328;28;19992;-59
2023/04/06 01:33:02;;;;;;;;;;;;;;;3.43;83.89;100342.19;5052822;28;20395;-58
2023/04/06 01:35:27;;;;;;;;;;;;;;;3.41;84.65;100345.72;5050247;28;19961;-59
2023/04/06 01:37:53;;;;;;;;;;;;;;;3.35;84.56;100348.31;5033377;28;19938;-59
2023/04/06 01:40:18;;;;;;;;;;;;;;;3.26;84.77;100348.31;5048476;28;19916;-58
2023/04/06 01:42:43;;;;;;;;;;;;;;;3.18;84.88;100340.41;5054291;28;20299;-59
2023/04/06 01:45:09;;;;;;;;;;;;;;;3.14;85.21;100340.41;5068935;28;20054;-59
2023/04/06 01:47:34;;;;;;;;;;;;;;;3.12;85.78;100344.75;5062693;28;19935;-59
2023/04/06 01:50:00;;;;;;;;;;;;;;;3.12;85.96;100339.50;5029613;28;19955;-59
2023/04/06 01:52:25;;;;;;;;;;;;;;;3.10;86.85;100343.91;5052861;28;19983;-59
2023/04/06 01:54:50;;;;;;;;;;;;;;;3.07;86.10;100341.25;5042464;28;20459;-59
2023/04/06 01:57:16;;;;;;;;;;;;;;;3.02;86.73;100336.00;5029562;28;20290;-59
2023/04/06 01:59:41;;;;;;;;;;;;;;;2.96;86.43;100342.97;5033153;28;19946;-59
2023/04/06 02:02:06;;;;;;;;;;;;;;;2.94;87.29;100344.72;5049980;28;20506;-58
2023/04/06 02:04:31;;;;;;;;;;;;;;;2.91;87.26;100344.72;5049868;28;19947;-58
2023/04/06 02:06:57;;;;;;;;;;;;;;;2.89;87.38;100341.19;5037017;28;20001;-59
2023/04/06 02:09:22;;;;;;;;;;;;;;;2.86;87.68;100341.19;5030013;28;19969;-59
2023/04/06 02:11:47;;;;;;;;;;;;;;;2.81;87.66;100341.19;5033961;28;19928;-59
2023/04/06 02:14:12;;;;;;;;;;;;;;;2.79;88.40;100335.03;5049898;28;20003;-59
2023/04/06 02:16:38;;;;;;;;;;;;;;;2.81;87.78;100335.03;5033254;28;19936;-59
2023/04/06 02:19:03;;;;;;;;;;;;;;;2.55;87.64;100285.94;5029675;28;19969;-58
2023/04/06 02:21:28;;;;;;;;;;;;;;;2.81;88.43;100338.56;5049026;28;19943;-58
2023/04/06 02:23:54;;;;;;;;;;;;;;;2.79;88.01;100339.41;5054259;28;19937;-59
2023/04/06 02:26:20;;;;;;;;;;;;;;;2.78;88.30;100340.28;5049476;28;19924;-58
2023/04/06 02:28:45;;;;;;;;;;;;;;;2.73;88.18;100341.13;5046178;28;20016;-58
2023/04/06 02:31:10;;;;;;;;;;;;;;;2.71;88.02;100339.38;5049666;28;19981;-59
2023/04/06 02:33:36;;;;;;;;;;;;;;;2.67;89.13;100341.13;5044822;28;19916;-59
2023/04/06 02:36:01;;;;;;;;;;;;;;;2.69;89.13;100328.00;5049235;28;19940;-59
2023/04/06 02:38:26;;;;;;;;;;;;;;;2.66;89.36;100338.50;5049376;28;19920;-59
2023/04/06 02:40:52;;;;;;;;;;;;;;;2.61;89.22;100346.38;5049420;28;19937;-59
2023/04/06 02:43:17;;;;;;;;;;;;;;;2.57;88.75;100341.94;5044328;28;19921;-59
2023/04/06 02:45:42;;;;;;;;;;;;;;;2.62;88.80;100341.97;5029407;28;20404;-59
2023/04/06 02:48:07;;;;;;;;;;;;;;;2.58;89.01;100329.72;5029441;28;19932;-58
2023/04/06 02:50:33;;;;;;;;;;;;;;;2.54;89.90;100327.94;5032033;28;19928;-58
2023/04/06 02:53:16;;;;;;;;;;;;;;;2.47;89.96;100337.53;5062035;28;19929;-59
2023/04/06 02:55:42;;;;;;;;;;;;;;;2.45;89.06;100333.16;5035285;28;20767;-59
2023/04/06 02:58:07;;;;;;;;;;;;;;;2.45;89.20;100334.03;5031814;28;19926;-59
2023/04/06 03:00:32;;;;;;;;;;;;;;;2.45;89.77;100328.78;5035699;28;20309;-59
2023/04/06 03:02:57;;;;;;;;;;;;;;;2.43;89.76;100327.91;5053318;28;19927;-59
2023/04/06 03:05:23;;;;;;;;;;;;;;;2.42;90.32;100334.00;5049520;28;20096;-59
2023/04/06 03:07:48;;;;;;;;;;;;;;;2.42;90.84;100334.00;5053215;28;19949;-59
2023/04/06 03:10:13;;;;;;;;;;;;;;;2.42;90.64;100328.75;5051493;28;19925;-59
2023/04/06 03:12:38;;;;;;;;;;;;;;;2.40;90.80;100325.28;5051504;28;19927;-59
2023/04/06 03:15:04;;;;;;;;;;;;;;;2.33;90.59;100328.72;5034482;28;20371;-59
2023/04/06 03:17:29;;;;;;;;;;;;;;;2.32;91.15;100326.94;5032133;28;20456;-59
2023/04/06 03:19:55;;;;;;;;;;;;;;;2.28;91.27;100322.56;5038315;28;19916;-59
2023/04/06 03:22:20;;;;;;;;;;;;;;;2.24;91.58;100322.56;5052055;28;19981;-59
2023/04/06 03:24:45;;;;;;;;;;;;;;;2.23;91.28;100320.78;5049928;28;19920;-59
2023/04/06 03:27:11;;;;;;;;;;;;;;;2.24;91.05;100323.41;5051747;28;20003;-59
2023/04/06 03:29:36;;;;;;;;;;;;;;;2.26;90.80;100326.03;5049870;28;19998;-59
2023/04/06 03:32:01;;;;;;;;;;;;;;;2.26;91.46;100315.53;5033761;28;20617;-59
2023/04/06 03:34:27;;;;;;;;;;;;;;;2.26;91.31;100328.66;5052534;28;19927;-59
2023/04/06 03:36:52;;;;;;;;;;;;;;;2.29;90.81;100321.69;5048688;28;19953;-59
2023/04/06 03:39:17;;;;;;;;;;;;;;;2.34;91.50;100324.38;5032627;28;19944;-59
2023/04/06 03:41:44;;;;;;;;;;;;;;;2.30;92.11;100318.22;5047304;28;19985;-59
2023/04/06 03:44:09;;;;;;;;;;;;;;;2.26;92.13;100323.41;5051898;28;19951;-59
2023/04/06 03:46:35;;;;;;;;;;;;;;;2.23;91.63;100328.66;5048343;28;20456;-59
2023/04/06 03:49:00;;;;;;;;;;;;;;;2.21;92.07;100327.75;5052385;28;19913;-59
2023/04/06 03:51:26;;;;;;;;;;;;;;;2.16;92.02;100343.47;5050157;28;20330;-59
2023/04/06 03:53:51;;;;;;;;;;;;;;;2.15;92.06;100341.75;5038407;28;20385;-59
2023/04/06 03:56:16;;;;;;;;;;;;;;;2.10;91.42;100346.06;5052206;28;19927;-59
2023/04/06 03:58:41;;;;;;;;;;;;;;;2.09;91.54;100349.56;5054962;28;19990;-58
2023/04/06 04:01:07;;;;;;;;;;;;;;;2.06;92.74;100352.16;5051972;28;20301;-59
2023/04/06 04:03:32;;;;;;;;;;;;;;;2.03;91.91;100360.00;5053103;28;19924;-59
2023/04/06 04:05:57;;;;;;;;;;;;;;;1.99;92.47;100358.25;5070500;28;19961;-59
2023/04/06 04:08:23;;;;;;;;;;;;;;;1.97;92.00;100362.59;5070906;28;19944;-59
2023/04/06 04:10:48;;;;;;;;;;;;;;;1.95;92.69;100361.72;5071157;28;19973;-59
2023/04/06 04:13:13;;;;;;;;;;;;;;;1.94;92.84;100367.84;5055499;28;19936;-59
2023/04/06 04:15:39;;;;;;;;;;;;;;;1.95;92.74;100364.34;5051489;28;19964;-59
2023/04/06 04:18:04;;;;;;;;;;;;;;;1.96;91.99;100367.84;5051659;28;19917;-59
2023/04/06 04:20:29;;;;;;;;;;;;;;;1.90;92.12;100373.91;5051831;28;19934;-59
2023/04/06 04:22:55;;;;;;;;;;;;;;;1.86;92.46;100373.88;5059370;28;20324;-59
2023/04/06 04:25:20;;;;;;;;;;;;;;;1.85;92.10;100375.63;5051548;28;19951;-59
2023/04/06 04:27:45;;;;;;;;;;;;;;;1.84;92.96;100373.88;5054420;28;19916;-59
2023/04/06 04:30:10;;;;;;;;;;;;;;;1.82;92.81;100375.59;5051078;28;20768;-59
2023/04/06 04:32:36;;;;;;;;;;;;;;;1.81;92.33;100376.47;5068140;28;20030;-59
2023/04/06 04:35:01;;;;;;;;;;;;;;;1.78;92.67;100379.03;5058023;28;20414;-59
2023/04/06 04:37:26;;;;;;;;;;;;;;;1.78;93.24;100376.44;5050415;28;19931;-59
2023/04/06 04:39:52;;;;;;;;;;;;;;;1.74;93.21;100382.53;5050092;28;19920;-59
2023/04/06 04:42:17;;;;;;;;;;;;;;;1.69;92.15;100372.84;5058057;28;19931;-59
2023/04/06 04:44:42;;;;;;;;;;;;;;;1.65;93.16;100373.72;5066392;28;20458;-59
2023/04/06 04:47:07;;;;;;;;;;;;;;;1.67;93.15;100379.81;5070294;28;19986;-59
2023/04/06 04:49:33;;;;;;;;;;;;;;;1.68;93.22;100377.22;5069998;28;19920;-59
2023/04/06 04:51:58;;;;;;;;;;;;;;;1.69;93.30;100383.34;5068291;28;19947;-59
2023/04/06 04:54:23;;;;;;;;;;;;;;;1.68;93.30;100377.22;5069067;28;19993;-59
2023/04/06 04:56:48;;;;;;;;;;;;;;;1.73;93.15;100393.88;5069808;28;19957;-59
2023/04/06 04:59:14;;;;;;;;;;;;;;;1.75;93.13;100394.75;5066869;28;20025;-59
2023/04/06 05:01:39;;;;;;;;;;;;;;;1.77;94.04;100392.16;5057891;28;19943;-59
2023/04/06 05:04:05;;;;;;;;;;;;;;;1.77;94.29;100398.28;5053329;28;19925;-59
2023/04/06 05:06:30;;;;;;;;;;;;;;;1.83;94.24;100398.31;5068462;28;19924;-59
2023/04/06 05:08:56;;;;;;;;;;;;;;;1.88;94.10;100401.00;5050686;28;19989;-59
2023/04/06 05:11:21;;;;;;;;;;;;;;;1.92;94.29;100403.66;5049525;28;19947;-59
2023/04/06 05:13:46;;;;;;;;;;;;;;;2.01;93.12;100408.97;5051766;28;19921;-59
2023/04/06 05:16:12;;;;;;;;;;;;;;;2.06;93.61;100407.25;5049548;28;20010;-59
2023/04/06 05:18:37;;;;;;;;;;;;;;;2.11;93.31;100405.53;5055411;28;19917;-59
2023/04/06 05:21:02;;;;;;;;;;;;;;;2.19;93.64;100401.22;5063811;28;20028;-59
2023/04/06 05:23:27;;;;;;;;;;;;;;;2.27;93.43;100399.53;5070290;28;19923;-59
2023/04/06 05:25:53;;;;;;;;;;;;;;;2.35;93.05;100392.59;5068681;28;20000;-59
2023/04/06 05:28:18;;;;;;;;;;;;;;;2.47;92.45;100399.69;5070114;28;19931;-59
2023/04/06 05:30:44;;;;;;;;;;;;;;;2.59;92.55;100399.72;5066697;28;19933;-59
2023/04/06 05:33:10;;;;;;;;;;;;;;;2.73;93.23;100392.81;5069810;28;19992;-59
2023/04/06 05:35:35;;;;;;;;;;;;;;;2.69;94.41;100347.28;5069152;28;20037;-59
2023/04/06 05:38:00;;;;;;;;;;;;;;;3.53;96.68;100396.56;5059193;28;21398;-59
2023/04/06 05:40:25;;;;;;;;;;;;;;;4.37;94.61;100390.41;5069879;28;19932;-59
2023/04/06 05:42:51;;;;;;;;;;;;;;;5.22;86.96;100391.00;5065599;28;20011;-59
2023/04/06 05:45:18;;;;;;;;;;;;;;;5.52;82.32;100384.66;5066093;28;19957;-59
2023/04/06 05:47:44;;;;;;;;;;;;;;;5.42;79.99;100388.25;5068595;28;20070;-59
2023/04/06 05:50:09;;;;;;;;;;;;;;;5.35;78.85;100388.25;5042408;28;20353;-59
2023/04/06 05:52:35;;;;;;;;;;;;;;;5.34;77.78;100394.44;5069527;28;19934;-59
2023/04/06 05:55:00;;;;;;;;;;;;;;;5.28;77.48;100396.22;5066158;28;20474;-59
2023/04/06 05:57:25;;;;;;;;;;;;;;;5.34;77.18;100391.78;5062419;28;19917;-59
2023/04/06 05:59:51;;;;;;;;;;;;;;;5.37;75.51;100394.41;5068389;28;20036;-59
2023/04/06 06:02:16;;;;;;;;;;;;;;;5.66;76.46;100395.97;5057451;28;20435;-59
2023/04/06 06:04:41;;;;;;;;;;;;;;;5.82;72.63;100400.25;5068394;28;19917;-59
2023/04/06 06:07:06;;;;;;;;;;;;;;;6.30;69.13;100397.25;5062434;28;19925;-59
2023/04/06 06:09:32;;;;;;;;;;;;;;;7.33;68.13;100387.22;5063559;28;19995;-59
2023/04/06 06:11:57;;;;;;;;;;;;;;;8.45;63.01;100398.72;5069513;28;20332;-59
2023/04/06 06:14:22;;;;;;;;;;;;;;;9.31;59.14;100397.84;5053456;28;20057;-59
2023/04/06 06:16:48;;;;;;;;;;;;;;;10.43;55.81;100394.31;5049499;28;20421;-60
2023/04/06 06:19:13;;;;;;;;;;;;;;;11.30;52.01;100390.94;5062698;28;19992;-60
2023/04/06 06:21:38;;;;;;;;;;;;;;;12.14;49.15;100387.44;5069255;28;19934;-59
2023/04/06 06:24:04;;;;;;;;;;;;;;;12.29;47.46;100396.75;5069574;28;19934;-60
2023/04/06 06:26:29;;;;;;;;;;;;;;;11.97;47.58;100400.47;5061194;28;19952;-59
2023/04/06 06:28:55;;;;;;;;;;;;;;;12.26;46.95;100402.16;5049659;28;19934;-60
2023/04/06 06:31:22;;;;;;;;;;;;;;;12.96;45.81;100396.13;5056924;28;19934;-59
2023/04/06 06:33:50;;;;;;;;;;;;;;;13.34;43.91;100402.75;5069908;28;19997;-60
2023/04/06 06:36:15;;;;;;;;;;;;;;;13.61;43.66;100396.34;5058299;28;19966;-60
2023/04/06 06:38:40;;;;;;;;;;;;;;;14.04;42.50;100394.59;5066283;28;19994;-59
2023/04/06 06:41:06;;;;;;;;;;;;;;;14.33;41.47;100393.44;5072366;28;20017;-60
2023/04/06 06:43:31;;;;;;;;;;;;;;;14.54;40.88;100395.22;5072142;28;19940;-60
2023/04/06 06:45:58;;;;;;;;;;;;;;;14.90;40.57;100401.66;5072587;28;20461;-59
2023/04/06 06:48:23;;;;;;;;;;;;;;;15.51;39.40;100400.66;5066966;28;19974;-60
2023/04/06 06:50:49;;;;;;;;;;;;;;;16.10;39.43;100394.22;5071965;28;19935;-60
2023/04/06 06:53:17;;;;;;;;;;;;;;;16.45;37.84;100390.66;5066283;28;20005;-60
2023/04/06 06:55:44;;;;;;;;;;;;;;;16.90;37.58;100393.72;5034775;28;19941;-60
2023/04/06 06:58:09;;;;;;;;;;;;;;;17.24;37.10;100390.09;5050966;28;19921;-60
2023/04/06 07:00:34;;;;;;;;;;;;;;;17.08;36.69;100400.81;5035563;28;19944;-60
2023/04/06 07:03:00;;;;;;;;;;;;;;;16.51;37.38;100395.75;5032312;28;20350;-60
2023/04/06 07:05:26;;;;;;;;;;;;;;;16.25;37.39;100396.16;5050569;28;19959;-60
2023/04/06 07:07:52;;;;;;;;;;;;;;;16.18;37.66;100392.91;5051637;28;19938;-60
2023/04/06 07:10:17;;;;;;;;;;;;;;;16.32;38.22;100394.91;5054642;28;19933;-60
2023/04/06 07:12:42;;;;;;;;;;;;;;;16.59;37.52;100389.06;5047298;28;20051;-60
2023/04/06 07:15:08;;;;;;;;;;;;;;;15.88;37.69;100397.06;5047152;28;19921;-60
2023/04/06 07:17:33;;;;;;;;;;;;;;;15.42;38.31;100401.06;5020812;28;20018;-60
2023/04/06 07:19:58;;;;;;;;;;;;;;;14.59;39.41;100401.25;5049044;28;19989;-60
2023/04/06 07:22:23;;;;;;;;;;;;;;;14.66;39.51;100401.84;5049625;28;19925;-59
2023/04/06 07:24:49;;;;;;;;;;;;;;;14.91;39.98;100397.19;5051472;28;20288;-60
2023/04/06 07:27:16;;;;;;;;;;;;;;;14.67;39.63;100393.75;5050980;28;19925;-60
2023/04/06 07:29:41;;;;;;;;;;;;;;;14.60;40.62;100397.63;5041933;28;20696;-60
2023/04/06 07:32:06;;;;;;;;;;;;;;;14.88;39.29;100392.81;5037101;28;19921;-60
2023/04/06 07:34:32;;;;;;;;;;;;;;;14.72;39.61;100397.09;5048858;28;20034;-60
2023/04/06 07:36:57;;;;;;;;;;;;;;;14.49;40.24;100391.84;5042591;28;20275;-60
2023/04/06 07:39:22;;;;;;;;;;;;;;;14.49;40.52;100389.19;5050970;28;19953;-60
2023/04/06 07:41:48;;;;;;;;;;;;;;;14.49;40.69;100400.78;5053832;28;19951;-60
2023/04/06 07:44:13;;;;;;;;;;;;;;;14.92;40.93;100399.78;5038569;28;19963;-60
2023/04/06 07:46:38;;;;;;;;;;;;;;;15.01;40.29;100399.34;5046083;28;19959;-60
2023/04/06 07:49:04;;;;;;;;;;;;;;;15.13;40.30;100397.94;5047333;28;19947;-60
2023/04/06 07:51:30;;;;;;;;;;;;;;;15.11;39.97;100395.34;5044709;28;19989;-60
2023/04/06 07:53:55;;;;;;;;;;;;;;;15.27;39.99;100393.69;5056099;28;19979;-60
2023/04/06 07:56:21;;;;;;;;;;;;;;;15.45;39.05;100394.72;5068398;28;19934;-60
2023/04/06 07:58:46;;;;;;;;;;;;;;;15.47;38.71;100399.03;5070138;28;19929;-60
2023/04/06 08:01:12;;;;;;;;;;;;;;;15.45;37.97;100395.56;5064556;28;19932;-60
2023/04/06 08:03:37;;;;;;;;;;;;;;;14.72;39.27;100394.41;5070201;28;19913;-60
2023/04/06 08:06:02;;;;;;;;;;;;;;;14.62;39.41;100395.75;5070279;28;19954;-60
2023/04/06 08:08:28;;;;;;;;;;;;;;;14.70;39.74;100398.97;5062465;28;20602;-60
2023/04/06 08:10:53;;;;;;;;;;;;;;;15.24;38.95;100396.50;5066063;28;19996;-60
2023/04/06 08:13:19;;;;;;;;;;;;;;;15.31;38.51;100392.63;5071182;28;19950;-60
2023/04/06 08:15:44;;;;;;;;;;;;;;;15.57;37.97;100395.00;5069381;28;19990;-60
2023/04/06 08:18:10;;;;;;;;;;;;;;;15.43;39.29;100389.41;5058969;28;19952;-60
2023/04/06 08:20:35;;;;;;;;;;;;;;;15.60;39.23;100383.28;5071072;28;20273;-60
2023/04/06 08:23:01;;;;;;;;;;;;;;;16.26;38.71;100384.50;5069393;28;19962;-60
2023/04/06 08:25:26;;;;;;;;;;;;;;;16.74;38.47;100382.00;5067695;28;20303;-60
2023/04/06 08:27:51;;;;;;;;;;;;;;;17.13;36.91;100379.94;5070377;28;19982;-60
2023/04/06 08:30:18;;;;;;;;;;;;;;;17.34;37.24;100385.97;5067405;28;19993;-60
2023/04/06 08:32:44;;;;;;;;;;;;;;;17.72;37.22;100385.66;5065550;28;20424;-60
2023/04/06 08:35:09;;;;;;;;;;;;;;;18.26;36.52;100376.22;5069265;28;19952;-60
2023/04/06 08:37:34;;;;;;;;;;;;;;;18.08;35.37;100380.00;5060335;28;19934;-60
2023/04/06 08:40:00;;;;;;;;;;;;;;;17.90;36.19;100379.22;5065734;28;20395;-61
2023/04/06 08:42:26;;;;;;;;;;;;;;;18.11;36.36;100378.00;5068801;28;20293;-60
2023/04/06 08:44:52;;;;;;;;;;;;;;;18.40;35.18;100378.16;5063408;28;19954;-60
2023/04/06 08:47:17;;;;;;;;;;;;;;;18.56;35.64;100368.22;5069197;28;19946;-60
2023/04/06 08:49:43;;;;;;;;;;;;;;;18.76;35.23;100375.97;5052048;28;19934;-60
2023/04/06 08:52:10;;;;;;;;;;;;;;;19.00;35.08;100379.84;5067027;28;20779;-60
2023/04/06 08:54:35;;;;;;;;;;;;;;;19.04;34.08;100379.59;5059031;28;19950;-60
2023/04/06 08:57:01;;;;;;;;;;;;;;;18.73;34.96;100376.16;5037411;28;19952;-60
2023/04/06 08:59:27;;;;;;;;;;;;;;;18.83;35.88;100388.13;5030424;28;19940;-60
2023/04/06 09:01:53;;;;;;;;;;;;;;;18.70;34.01;100379.03;5039082;28;19947;-60
2023/04/06 09:04:18;;;;;;;;;;;;;;;18.16;35.41;100385.78;5049246;28;20020;-60
2023/04/06 09:06:43;;;;;;;;;;;;;;;18.18;35.72;100382.06;5047089;28;20019;-60
2023/04/06 09:09:09;;;;;;;;;;;;;;;18.95;35.21;100381.97;5034918;28;19962;-60
2023/04/06 09:11:50;;;;;;;;;;;;;;;19.06;33.65;100383.06;5046865;28;19932;-59
2023/04/06 09:14:16;;;;;;;;;;;;;;;19.40;34.52;100374.66;5046490;28;19933;-59
2023/04/06 09:16:42;;;;;;;;;;;;;;;19.76;33.98;100370.56;5029235;28;19977;-59
2023/04/06 09:19:08;;;;;;;;;;;;;;;19.68;34.34;100373.75;5042136;28;19970;-59
2023/04/06 09:21:33;;;;;;;;;;;;;;;19.56;32.94;100379.94;5036120;28;20388;-59
2023/04/06 09:24:00;;;;;;;;;;;;;;;19.76;32.82;100374.13;5043338;28;20050;-59
2023/04/06 09:26:26;;;;;;;;;;;;;;;19.79;32.90;100371.22;5048662;28;19955;-59
2023/04/06 09:28:54;;;;;;;;;;;;;;;19.89;33.50;100366.09;5065324;28;19965;-59
2023/04/06 09:31:23;;;;;;;;;;;;;;;20.47;33.22;100356.78;5059128;28;19931;-59
2023/04/06 09:33:50;;;;;;;;;;;;;;;20.82;31.51;100371.44;5050322;28;19934;-59
2023/04/06 09:36:15;;;;;;;;;;;;;;;20.52;30.66;100365.44;5049394;28;19962;-59
2023/04/06 09:38:59;;;;;;;;;;;;;;;20.84;30.64;100365.91;5031919;28;19928;-59
2023/04/06 09:41:26;;;;;;;;;;;;;;;21.05;31.03;100360.91;5044498;28;19943;-59
2023/04/06 09:43:52;;;;;;;;;;;;;;;20.97;31.66;100368.66;5044773;28;19962;-59
2023/04/06 09:46:20;;;;;;;;;;;;;;;20.94;30.88;100362.47;5028051;28;19951;-59
2023/04/06 09:48:46;;;;;;;;;;;;;;;20.64;32.04;100367.28;5028049;28;19927;-59
2023/04/06 09:51:14;;;;;;;;;;;;;;;20.70;31.69;100363.31;5050174;28;19931;-59
2023/04/06 09:53:41;;;;;;;;;;;;;;;20.65;31.85;100363.63;5068894;28;19958;-59
2023/04/06 09:56:11;;;;;;;;;;;;;;;20.60;30.87;100360.38;5053210;28;20007;-59
2023/04/06 09:58:42;;;;;;;;;;;;;;;20.98;29.69;100362.28;5050910;28;20414;-59
2023/04/06 10:01:11;;;;;;;;;;;;;;;21.11;30.29;100358.63;5038418;28;20410;-59
2023/04/06 10:03:38;;;;;;;;;;;;;;;21.08;30.59;100360.69;5049833;28;19917;-59
2023/04/06 10:06:05;;;;;;;;;;;;;;;21.16;29.96;100359.19;5043917;28;19993;-59
2023/04/06 10:08:32;;;;;;;;;;;;;;;20.80;30.84;100362.59;5028626;28;19927;-59
2023/04/06 10:10:58;;;;;;;;;;;;;;;21.08;30.02;100352.56;5028761;28;19953;-59
2023/04/06 10:13:24;;;;;;;;;;;;;;;21.22;31.00;100347.06;5028801;28;19955;-59
2023/04/06 10:15:50;;;;;;;;;;;;;;;22.21;29.54;100355.09;5037164;28;20399;-59
2023/04/06 10:18:16;;;;;;;;;;;;;;;21.95;27.13;100344.34;5042305;28;20392;-59
2023/04/06 10:21:00;;;;;;;;;;;;;;;21.60;28.38;100350.56;5029434;28;19948;-59
2023/04/06 10:23:31;;;;;;;;;;;;;;;21.31;26.55;100351.81;5030586;28;19935;-59
2023/04/06 10:25:58;;;;;;;;;;;;;;;21.03;28.15;100346.63;5043158;28;20453;-59
2023/04/06 10:28:24;;;;;;;;;;;;;;;21.39;28.48;100338.59;5049639;28;20443;-59
2023/04/06 10:30:56;;;;;;;;;;;;;;;20.84;28.51;100352.41;5049508;28;19917;-59
2023/04/06 10:33:21;;;;;;;;;;;;;;;20.78;29.89;100342.00;5049467;28;19957;-59
2023/04/06 10:35:46;;;;;;;;;;;;;;;20.54;29.60;100344.56;5049397;28;20452;-59
2023/04/06 10:38:14;;;;;;;;;;;;;;;20.78;28.17;100345.59;5039396;28;19928;-59
2023/04/06 10:40:40;;;;;;;;;;;;;;;20.85;28.45;100346.91;5029530;28;19943;-59
2023/04/06 10:43:12;;;;;;;;;;;;;;;20.50;27.49;100348.44;5031931;28;19935;-59
2023/04/06 10:45:38;;;;;;;;;;;;;;;20.02;30.29;100340.88;5029487;28;19987;-59
2023/04/06 10:48:32;;;;;;;;;;;;;;;20.66;31.21;100338.31;5029623;28;20369;-59
2023/04/06 10:50:58;;;;;;;;;;;;;;;20.44;27.48;100338.06;5016174;28;19917;-59
2023/04/06 10:53:24;;;;;;;;;;;;;;;20.82;30.21;100333.56;5057888;28;19920;-59
2023/04/06 10:55:50;;;;;;;;;;;;;;;21.01;26.83;100332.31;5069649;28;19916;-59
2023/04/06 10:58:15;;;;;;;;;;;;;;;21.05;26.62;100333.84;5068810;28;20354;-60
2023/04/06 11:00:48;;;;;;;;;;;;;;;21.12;25.10;100327.03;5067729;28;20012;-59
2023/04/06 11:03:13;;;;;;;;;;;;;;;21.44;26.62;100325.59;5064762;28;19912;-59
2023/04/06 11:05:38;;;;;;;;;;;;;;;21.29;25.19;100322.16;5067978;28;19970;-59
2023/04/06 11:08:04;;;;;;;;;;;;;;;21.35;25.45;100326.28;5062032;28;19923;-59
2023/04/06 11:10:30;;;;;;;;;;;;;;;21.69;24.29;100321.00;5029669;28;19917;-59
2023/04/06 11:12:55;;;;;;;;;;;;;;;22.10;24.09;100310.72;5047933;28;19912;-59
2023/04/06 11:15:21;;;;;;;;;;;;;;;22.34;24.11;100313.38;5048781;28;19917;-60
2023/04/06 11:17:46;;;;;;;;;;;;;;;23.18;24.58;100305.84;5050885;28;20372;-59
2023/04/06 11:20:11;;;;;;;;;;;;;;;22.65;23.70;100301.09;5061281;28;19924;-59
2023/04/06 11:22:47;;;;;;;;;;;;;;;22.42;24.24;100305.53;5072184;28;20311;-60
2023/04/06 11:25:13;;;;;;;;;;;;;;;22.62;23.19;100307.59;5068889;28;19923;-59
2023/04/06 11:27:38;;;;;;;;;;;;;;;22.50;22.81;100299.53;5072661;28;19955;-59
2023/04/06 11:30:04;;;;;;;;;;;;;;;22.66;23.86;100282.00;5072373;28;19959;-59
2023/04/06 11:32:29;;;;;;;;;;;;;;;23.55;24.39;100284.78;5072611;28;19916;-60
2023/04/06 11:34:57;;;;;;;;;;;;;;;23.69;24.31;100281.81;5064248;28;20015;-60
2023/04/06 11:37:25;;;;;;;;;;;;;;;23.76;22.18;100285.72;5066104;28;19916;-60
2023/04/06 11:39:52;;;;;;;;;;;;;;;23.70;22.57;100284.41;5068556;28;19924;-60
2023/04/06 11:42:35;;;;;;;;;;;;;;;24.23;22.50;100282.69;5072478;28;19927;-60
2023/04/06 11:45:00;;;;;;;;;;;;;;;24.34;24.57;100288.06;5072463;28;20371;-60
2023/04/06 11:47:30;;;;;;;;;;;;;;;23.18;22.49;100282.31;5071966;28;19920;-60
2023/04/06 11:49:56;;;;;;;;;;;;;;;23.81;21.97;100278.06;5064840;28;19916;-59
2023/04/06 11:52:25;;;;;;;;;;;;;;;23.56;24.60;100272.97;5072027;28;20372;-60
2023/04/06 11:54:51;;;;;;;;;;;;;;;23.95;23.69;100264.22;5072251;28;19933;-60
2023/04/06 11:57:17;;;;;;;;;;;;;;;23.28;24.46;100264.31;5072142;28;20429;-60
2023/04/06 11:59:43;;;;;;;;;;;;;;;23.53;24.04;100270.47;5069328;28;20023;-60
2023/04/06 12:02:08;;;;;;;;;;;;;;;23.29;24.82;100266.03;5071083;28;20003;-60
2023/04/06 12:04:34;;;;;;;;;;;;;;;23.69;25.50;100260.94;5066626;28;20395;-60
2023/04/06 12:06:59;;;;;;;;;;;;;;;23.84;26.36;100261.53;5070895;28;19921;-60
2023/04/06 12:09:25;;;;;;;;;;;;;;;23.95;23.74;100264.22;5068883;28;19942;-60
2023/04/06 12:11:50;;;;;;;;;;;;;;;23.84;25.22;100264.25;5052460;28;19920;-60
2023/04/06 12:14:19;;;;;;;;;;;;;;;24.24;26.81;100262.66;5050924;28;20388;-60
2023/04/06 12:16:44;;;;;;;;;;;;;;;23.76;24.78;100272.16;5061604;28;20344;-60
2023/04/06 12:19:09;;;;;;;;;;;;;;;23.77;24.90;100254.88;5071874;28;20003;-60
2023/04/06 12:21:37;;;;;;;;;;;;;;;23.75;26.13;100256.84;5069979;28;19929;-60
2023/04/06 12:24:02;;;;;;;;;;;;;;;23.75;27.01;100251.41;5051731;28;19917;-61
2023/04/06 12:26:28;;;;;;;;;;;;;;;23.63;26.90;100256.03;5051451;28;19928;-60
2023/04/06 12:28:53;;;;;;;;;;;;;;;22.85;24.38;100255.13;5050595;28;19916;-60
2023/04/06 12:31:19;;;;;;;;;;;;;;;21.64;26.13;100255.50;5060874;28;19921;-60
2023/04/06 12:33:48;;;;;;;;;;;;;;;21.09;26.70;100259.63;5050328;28;19920;-60